createdAt,value
2023-04-01T00:00:54.224Z,15.70
2023-04-01T00:03:43.011Z,15.70
2023-04-01T00:06:31.688Z,15.70
2023-04-01T00:09:20.601Z,15.60
2023-04-01T00:12:09.006Z,15.70
2023-04-01T00:14:57.701Z,15.70
2023-04-01T00:17:47.506Z,15.70
2023-04-01T00:20:36.226Z,15.80
2023-04-01T00:23:24.660Z,15.80
2023-04-01T00:26:15.228Z,15.90
2023-04-01T00:29:03.771Z,15.90
2023-04-01T00:31:52.326Z,15.90
2023-04-01T00:34:42.687Z,15.90
2023-04-01T00:37:31.320Z,16.00
2023-04-01T00:40:27.784Z,15.90
2023-04-01T00:43:19.329Z,15.90
2023-04-01T00:46:07.741Z,15.90
2023-04-01T00:48:58.239Z,15.90
2023-04-01T00:51:52.283Z,15.80
2023-04-01T00:54:43.161Z,15.80
2023-04-01T00:57:37.388Z,15.80
2023-04-01T01:00:27.329Z,15.70
2023-04-01T01:03:15.874Z,15.70
2023-04-01T01:06:12.946Z,15.40
2023-04-01T01:09:15.050Z,14.90
2023-04-01T01:12:10.149Z,14.90
2023-04-01T01:15:08.238Z,14.70
2023-04-01T01:18:03.640Z,13.60
2023-04-01T01:21:18.648Z,13.50
2023-04-01T01:24:23.139Z,13.70
2023-04-01T01:27:13.797Z,13.70
2023-04-01T01:30:27.132Z,14.00
2023-04-01T01:33:37.007Z,14.30
2023-04-01T01:36:31.076Z,14.50
2023-04-01T01:39:20.527Z,14.80
2023-04-01T01:42:13.207Z,15.00
2023-04-01T01:45:04.084Z,15.00
2023-04-01T01:47:53.737Z,15.00
2023-04-01T01:50:43.442Z,15.00
2023-04-01T01:53:33.312Z,15.00
2023-04-01T01:56:25.541Z,15.00
2023-04-01T01:59:15.655Z,15.00
2023-04-01T02:02:08.946Z,15.00
2023-04-01T02:04:57.475Z,14.90
2023-04-01T02:07:50.503Z,15.00
2023-04-01T02:10:44.127Z,15.00
2023-04-01T02:13:40.102Z,14.90
2023-04-01T02:16:31.701Z,14.90
2023-04-01T02:19:23.638Z,14.80
2023-04-01T02:22:15.687Z,14.60
2023-04-01T02:25:10.332Z,14.80
2023-04-01T02:28:02.008Z,14.70
2023-04-01T02:30:51.934Z,14.70
2023-04-01T02:33:41.946Z,14.70
2023-04-01T02:36:30.959Z,14.60
2023-04-01T02:39:20.092Z,14.60
2023-04-01T02:42:08.610Z,14.60
2023-04-01T02:44:58.429Z,14.60
2023-04-01T02:47:46.950Z,14.60
2023-04-01T02:50:35.476Z,14.50
2023-04-01T02:56:12.724Z,14.30
2023-04-01T02:59:01.157Z,14.40
2023-04-01T03:18:45.951Z,14.00
2023-04-01T03:21:34.441Z,14.00
2023-04-01T03:24:23.011Z,14.00
2023-04-01T03:27:11.489Z,13.80
2023-04-01T03:29:59.962Z,13.70
2023-04-01T03:32:49.336Z,13.60
2023-04-01T03:35:39.155Z,13.80
2023-04-01T03:38:27.618Z,13.80
2023-04-01T03:41:16.651Z,13.80
2023-04-01T03:44:05.262Z,13.80
2023-04-01T03:46:53.744Z,13.90
2023-04-01T03:49:42.330Z,13.80
2023-04-01T03:52:32.180Z,13.90
2023-04-01T03:55:21.298Z,13.90
2023-04-01T03:58:10.048Z,13.90
2023-04-01T04:00:58.578Z,13.70
2023-04-01T04:03:47.402Z,13.80
2023-04-01T04:06:36.001Z,13.70
2023-04-01T04:09:26.131Z,13.60
2023-04-01T04:12:14.564Z,13.60
2023-04-01T04:15:03.061Z,13.60
2023-04-01T04:17:51.688Z,13.60
2023-04-01T04:20:46.626Z,13.60
2023-04-01T04:23:35.765Z,13.60
2023-04-01T04:26:25.616Z,13.60
2023-04-01T04:29:14.071Z,13.30
2023-04-01T04:32:02.481Z,13.00
2023-04-01T04:34:51.018Z,13.10
2023-04-01T04:37:39.435Z,12.70
2023-04-01T04:40:27.912Z,12.70
2023-04-01T04:43:19.396Z,12.40
2023-04-01T04:46:08.803Z,12.30
2023-04-01T04:48:57.480Z,12.40
2023-04-01T04:51:46.107Z,12.40
2023-04-01T04:54:34.573Z,12.00
2023-04-01T04:57:23.062Z,12.10
2023-04-01T05:00:13.875Z,12.20
2023-04-01T05:03:02.655Z,12.30
2023-04-01T05:05:52.388Z,12.50
2023-04-01T05:08:41.411Z,12.80
2023-04-01T05:11:29.928Z,12.90
2023-04-01T05:14:18.508Z,13.10
2023-04-01T05:17:11.033Z,13.00
2023-04-01T05:19:59.568Z,13.00
2023-04-01T05:22:47.984Z,13.00
2023-04-01T05:25:39.450Z,13.00
2023-04-01T05:28:27.899Z,13.00
2023-04-01T05:31:16.638Z,12.80
2023-04-01T05:34:06.545Z,12.70
2023-04-01T05:36:54.977Z,12.80
2023-04-01T05:39:43.561Z,12.90
2023-04-01T05:42:32.002Z,12.90
2023-04-01T05:45:20.426Z,12.90
2023-04-01T05:48:08.900Z,13.00
2023-04-01T05:50:58.817Z,13.10
2023-04-01T05:53:47.420Z,13.20
2023-04-01T05:56:35.863Z,12.60
2023-04-01T05:59:24.333Z,12.60
2023-04-01T06:02:12.932Z,12.00
2023-04-01T06:05:13.265Z,12.20
2023-04-01T06:08:11.755Z,12.40
2023-04-01T06:11:10.228Z,12.60
2023-04-01T06:14:13.866Z,12.70
2023-04-01T06:17:18.740Z,12.80
2023-04-01T06:20:18.972Z,12.80
2023-04-01T06:26:27.986Z,12.70
2023-04-01T06:29:47.081Z,12.40
2023-04-01T06:33:04.884Z,12.30
2023-04-01T06:36:08.903Z,12.60
2023-04-01T06:39:18.953Z,12.90
2023-04-01T06:42:27.246Z,13.20
2023-04-01T06:45:30.997Z,13.40
2023-04-01T06:48:44.034Z,14.80
2023-04-01T06:51:41.260Z,13.70
2023-04-01T06:54:36.691Z,13.90
2023-04-01T06:57:32.117Z,13.90
2023-04-01T07:00:27.057Z,13.50
2023-04-01T07:03:23.889Z,14.10
2023-04-01T07:23:25.586Z,14.70
2023-04-01T07:26:19.921Z,14.70
2023-04-01T07:29:12.939Z,14.80
2023-04-01T07:32:23.058Z,14.80
2023-04-01T07:35:31.168Z,15.00
2023-04-01T07:38:29.299Z,15.10
2023-04-01T07:41:26.572Z,15.40
2023-04-01T07:44:24.568Z,15.40
2023-04-01T07:47:34.306Z,15.70
2023-04-01T07:50:28.794Z,15.80
2023-04-01T07:53:28.153Z,14.90
2023-04-01T07:56:25.732Z,16.00
2023-04-01T07:59:22.821Z,16.10
2023-04-01T08:02:22.781Z,16.30
2023-04-01T08:05:21.366Z,16.50
2023-04-01T08:08:20.343Z,16.70
2023-04-01T08:11:19.062Z,16.80
2023-04-01T08:14:20.275Z,16.40
2023-04-01T08:17:18.090Z,17.00
2023-04-01T08:20:18.189Z,17.00
2023-04-01T08:23:13.152Z,17.30
2023-04-01T08:26:06.403Z,17.40
2023-04-01T08:28:59.578Z,17.60
2023-04-01T08:31:53.972Z,17.60
2023-04-01T08:34:49.447Z,17.50
2023-04-01T08:37:42.199Z,17.30
2023-04-01T08:40:59.815Z,17.50
2023-04-01T08:44:26.645Z,17.70
2023-04-01T08:47:39.752Z,17.90
2023-04-01T08:51:15.807Z,18.00
2023-04-01T08:54:32.850Z,18.00
2023-04-01T08:57:31.316Z,18.10
2023-04-01T09:00:32.549Z,18.40
2023-04-01T09:03:38.862Z,18.50
2023-04-01T09:06:37.797Z,18.60
2023-04-01T09:09:57.313Z,18.70
2023-04-01T09:12:58.491Z,18.70
2023-04-01T09:16:03.136Z,18.70
2023-04-01T09:19:13.340Z,18.60
2023-04-01T09:22:30.422Z,18.60
2023-04-01T09:25:40.801Z,18.70
2023-04-01T09:28:35.504Z,18.90
2023-04-01T09:31:35.014Z,19.10
2023-04-01T09:37:40.834Z,19.00
2023-04-01T09:40:43.595Z,19.10
2023-04-01T09:44:01.052Z,19.20
2023-04-01T09:47:00.322Z,19.30
2023-04-01T09:50:08.604Z,19.40
2023-04-01T09:53:09.341Z,19.50
2023-04-01T09:59:37.765Z,19.60
2023-04-01T10:03:12.529Z,19.80
2023-04-01T10:16:12.435Z,20.40
2023-04-01T10:19:32.362Z,20.30
2023-04-01T10:22:43.022Z,20.40
2023-04-01T10:25:55.701Z,20.50
2023-04-01T10:32:15.319Z,20.80
2023-04-01T10:35:41.044Z,20.80
2023-04-01T10:48:23.037Z,21.70
2023-04-01T10:51:27.670Z,21.60
2023-04-01T10:54:46.546Z,21.80
2023-04-01T10:58:13.124Z,21.90
2023-04-01T11:01:24.788Z,22.00
2023-04-01T11:05:07.994Z,22.20
2023-04-01T11:08:39.733Z,22.60
2023-04-01T11:12:07.080Z,22.70
2023-04-01T11:15:28.987Z,22.80
2023-04-01T11:18:47.073Z,23.10
2023-04-01T11:28:07.638Z,23.60
2023-04-01T11:31:12.153Z,23.20
2023-04-01T11:34:12.122Z,23.40
2023-04-01T11:37:12.136Z,23.90
2023-04-01T11:40:16.316Z,24.30
2023-04-01T11:43:26.335Z,24.60
2023-04-01T11:46:30.553Z,24.70
2023-04-01T11:49:31.986Z,24.90
2023-04-01T11:55:27.402Z,25.30
2023-04-01T11:58:30.820Z,26.60
2023-04-01T12:01:30.793Z,25.40
2023-04-01T12:04:40.916Z,25.20
2023-04-01T12:07:55.673Z,25.20
2023-04-01T12:10:51.370Z,25.30
2023-04-01T12:13:47.143Z,25.50
2023-04-01T12:16:53.884Z,25.80
2023-04-01T12:19:50.069Z,25.90
2023-04-01T12:22:51.831Z,25.90
2023-04-01T12:29:08.586Z,26.00
2023-04-01T12:32:06.639Z,26.10
2023-04-01T12:35:15.255Z,26.20
2023-04-01T12:38:19.782Z,26.30
2023-04-01T12:41:19.817Z,26.30
2023-04-01T12:44:37.104Z,26.40
2023-04-01T12:47:46.338Z,26.50
2023-04-01T12:50:54.069Z,26.50
2023-04-01T12:54:30.586Z,26.50
2023-04-01T12:57:34.466Z,26.60
2023-04-01T13:00:53.237Z,26.60
2023-04-01T13:04:05.377Z,26.70
2023-04-01T13:07:09.975Z,26.70
2023-04-01T13:10:08.962Z,26.80
2023-04-01T13:13:27.090Z,27.00
2023-04-01T13:16:18.548Z,27.10
2023-04-01T13:19:11.170Z,27.00
2023-04-01T13:22:05.766Z,26.90
2023-04-01T13:25:01.435Z,26.70
2023-04-01T13:27:58.073Z,26.70
2023-04-01T13:30:51.845Z,26.70
2023-04-01T13:33:47.667Z,26.60
2023-04-01T13:36:45.550Z,26.50
2023-04-01T13:40:01.750Z,26.10
2023-04-01T13:42:59.137Z,26.40
2023-04-01T13:46:24.092Z,26.60
2023-04-01T13:49:42.514Z,26.50
2023-04-01T13:52:54.886Z,26.50
2023-04-01T13:56:04.697Z,26.60
2023-04-01T13:59:27.426Z,26.70
2023-04-01T14:02:47.139Z,26.60
2023-04-01T14:05:49.342Z,26.60
2023-04-01T14:08:53.755Z,26.60
2023-04-01T14:11:50.112Z,26.50
2023-04-01T14:15:01.831Z,26.30
2023-04-01T14:18:01.052Z,26.20
2023-04-01T14:20:55.668Z,25.90
2023-04-01T14:24:13.564Z,25.40
2023-04-01T14:27:20.500Z,25.30
2023-04-01T14:30:38.309Z,25.50
2023-04-01T14:33:40.067Z,24.30
2023-04-01T14:37:00.153Z,25.80
2023-04-01T14:40:02.129Z,25.70
2023-04-01T14:43:01.388Z,25.70
2023-04-01T14:46:16.939Z,25.70
2023-04-01T14:49:16.275Z,25.70
2023-04-01T14:52:16.067Z,25.60
2023-04-01T14:55:21.756Z,25.60
2023-04-01T14:58:13.501Z,25.50
2023-04-01T15:04:16.129Z,25.20
2023-04-01T15:07:27.162Z,25.10
2023-04-01T15:10:44.411Z,25.00
2023-04-01T15:14:17.770Z,24.90
2023-04-01T15:17:24.590Z,24.80
2023-04-01T15:20:32.237Z,24.70
2023-04-01T15:23:32.950Z,24.70
2023-04-01T15:26:39.262Z,24.60
2023-04-01T15:29:45.575Z,24.50
2023-04-01T15:32:47.310Z,24.40
2023-04-01T15:35:46.668Z,24.30
2023-04-01T15:38:40.630Z,24.30
2023-04-01T15:41:41.369Z,24.20
2023-04-01T15:44:52.490Z,23.90
2023-04-01T15:47:44.938Z,23.90
2023-04-01T15:50:55.539Z,24.00
2023-04-01T15:54:02.380Z,24.10
2023-04-01T15:57:02.969Z,23.90
2023-04-01T16:00:20.705Z,23.90
2023-04-01T16:03:35.455Z,23.80
2023-04-01T16:06:45.834Z,23.60
2023-04-01T16:09:49.571Z,23.40
2023-04-01T16:12:51.858Z,23.30
2023-04-01T16:15:46.571Z,23.20
2023-04-01T16:18:52.794Z,23.00
2023-04-01T16:21:48.277Z,22.90
2023-04-01T16:24:41.107Z,22.90
2023-04-01T16:27:37.339Z,22.80
2023-04-01T16:30:35.489Z,22.70
2023-04-01T16:33:29.999Z,22.40
2023-04-01T16:36:29.495Z,22.20
2023-04-01T16:39:30.794Z,21.70
2023-04-01T16:42:30.936Z,21.50
2023-04-01T16:45:28.560Z,21.40
2023-04-01T16:48:21.184Z,21.30
2023-04-01T16:51:16.922Z,21.20
2023-04-01T16:54:14.688Z,20.80
2023-04-01T16:57:19.747Z,20.50
2023-04-01T17:03:18.619Z,20.10
2023-04-01T17:06:21.780Z,20.10
2023-04-01T17:09:36.274Z,20.00
2023-04-01T17:12:30.256Z,20.20
2023-04-01T17:15:27.549Z,20.30
2023-04-01T17:18:25.938Z,20.30
2023-04-01T17:21:20.482Z,20.40
2023-04-01T17:24:24.678Z,20.20
2023-04-01T17:27:28.517Z,20.20
2023-04-01T17:30:32.291Z,20.10
2023-04-01T17:33:43.669Z,19.90
2023-04-01T17:36:46.553Z,19.90
2023-04-01T17:39:48.840Z,19.80
2023-04-01T17:42:44.677Z,19.70
2023-04-01T17:45:38.963Z,19.60
2023-04-01T17:48:40.722Z,19.50
2023-04-01T17:51:35.920Z,19.40
2023-04-01T17:54:35.883Z,19.40
2023-04-01T17:57:46.426Z,19.40
2023-04-01T18:00:52.860Z,19.40
2023-04-01T18:04:07.246Z,19.40
2023-04-01T18:07:31.458Z,19.00
2023-04-01T18:10:28.899Z,19.10
2023-04-01T18:13:37.722Z,19.10
2023-04-01T18:16:40.459Z,19.00
2023-04-01T18:19:37.744Z,19.20
2023-04-01T18:22:31.685Z,19.00
2023-04-01T18:25:27.560Z,19.00
2023-04-01T18:28:29.531Z,19.00
2023-04-01T18:31:21.145Z,19.00
2023-04-01T18:34:15.016Z,18.90
2023-04-01T18:37:15.101Z,18.50
2023-04-01T18:40:17.587Z,18.40
2023-04-01T18:44:03.395Z,18.40
2023-04-01T18:47:02.748Z,18.40
2023-04-01T18:49:57.743Z,18.50
2023-04-01T18:52:46.800Z,18.40
2023-04-01T18:55:41.007Z,18.40
2023-04-01T18:58:37.099Z,18.40
2023-04-01T19:01:30.357Z,17.90
2023-04-01T19:04:25.941Z,18.60
2023-04-01T19:07:47.929Z,18.70
2023-04-01T19:10:48.016Z,18.70
2023-04-01T19:13:48.186Z,18.70
2023-04-01T19:16:51.484Z,18.70
2023-04-01T19:19:53.528Z,18.70
2023-04-01T19:22:55.939Z,18.70
2023-04-01T19:25:48.338Z,18.80
2023-04-01T19:28:49.746Z,18.70
2023-04-01T19:31:50.357Z,18.60
2023-04-01T19:34:51.999Z,18.50
2023-04-01T19:37:42.497Z,18.40
2023-04-01T19:40:42.729Z,18.30
2023-04-01T19:43:49.104Z,18.10
2023-04-01T19:46:43.056Z,17.80
2023-04-01T19:49:44.563Z,17.60
2023-04-01T19:52:37.875Z,17.70
2023-04-01T19:55:37.340Z,17.70
2023-04-01T19:58:33.460Z,17.70
2023-04-01T20:01:41.678Z,17.50
2023-04-01T20:04:39.595Z,17.40
2023-04-01T20:07:32.917Z,17.10
2023-04-01T20:10:27.572Z,17.20
2023-04-01T20:13:27.754Z,17.20
2023-04-01T20:16:17.581Z,17.20
2023-04-01T20:19:06.462Z,17.40
2023-04-01T20:22:00.406Z,17.40
2023-04-01T20:49:00.663Z,17.40
2023-04-01T20:51:55.604Z,17.40
2023-04-01T20:54:57.879Z,17.30
2023-04-01T20:57:53.315Z,17.00
2023-04-01T21:00:54.711Z,16.80
2023-04-01T21:03:49.446Z,17.00
2023-04-01T21:06:50.794Z,16.70
2023-04-01T21:09:50.872Z,16.60
2023-04-01T21:12:50.078Z,16.90
2023-04-01T21:16:04.693Z,16.90
2023-04-01T21:19:19.961Z,16.70
2023-04-01T21:22:23.460Z,16.90
2023-04-01T21:25:30.337Z,16.90
2023-04-01T21:28:36.564Z,17.20
2023-04-01T21:31:39.465Z,17.30
2023-04-01T21:34:52.686Z,17.10
2023-04-01T21:37:56.014Z,17.10
2023-04-01T21:41:04.729Z,16.90
2023-04-01T21:44:19.825Z,17.00
2023-04-01T21:47:49.505Z,16.80
2023-04-01T21:51:18.832Z,17.00
2023-04-01T21:54:36.582Z,16.90
2023-04-01T21:57:57.768Z,16.90
2023-04-01T22:00:53.353Z,16.70
2023-04-01T22:04:12.917Z,16.60
2023-04-01T22:07:07.452Z,16.40
2023-04-01T22:10:04.707Z,16.40
2023-04-01T22:13:00.473Z,16.40
2023-04-01T22:15:59.573Z,16.40
2023-04-01T22:19:00.123Z,16.20
2023-04-01T22:22:02.554Z,16.00
2023-04-01T22:25:02.667Z,16.40
2023-04-01T22:27:57.827Z,16.10
2023-04-01T22:30:51.429Z,15.90
2023-04-01T22:33:48.816Z,16.00
2023-04-01T22:36:47.728Z,15.90
2023-04-01T22:40:01.099Z,15.80
2023-04-01T22:42:55.036Z,15.80
2023-04-01T22:46:28.671Z,15.70
2023-04-01T22:49:23.641Z,15.70
2023-04-01T22:52:23.149Z,16.00
2023-04-01T22:55:16.399Z,16.10
2023-04-01T23:01:01.621Z,16.10
2023-04-01T23:03:53.474Z,16.10
2023-04-01T23:06:46.214Z,16.20
2023-04-01T23:09:37.829Z,16.40
2023-04-01T23:12:27.940Z,16.20
2023-04-01T23:15:18.219Z,16.40
2023-04-01T23:18:23.816Z,16.30
2023-04-01T23:21:17.931Z,16.50
2023-04-01T23:24:19.047Z,16.50
2023-04-01T23:27:19.113Z,16.50
2023-04-01T23:30:46.792Z,16.60
2023-04-01T23:33:35.274Z,16.50
2023-04-01T23:36:24.209Z,16.40
2023-04-01T23:39:23.426Z,16.50
2023-04-01T23:42:20.709Z,16.60
2023-04-01T23:45:18.191Z,16.60
2023-04-01T23:48:07.649Z,16.70
2023-04-01T23:50:57.110Z,16.80
2023-04-01T23:53:47.629Z,16.90
2023-04-01T23:56:43.182Z,16.90
2023-04-01T23:59:34.940Z,16.90
